createdAt,value
2024-05-09T00:01:39.518Z,11.67
2024-05-09T00:04:44.089Z,11.27
2024-05-09T00:07:51.231Z,11.51
2024-05-09T00:10:56.087Z,11.54
2024-05-09T00:14:00.599Z,11.41
2024-05-09T00:17:05.100Z,11.37
2024-05-09T00:20:17.512Z,11.27
2024-05-09T00:23:27.730Z,11.11
2024-05-09T00:26:32.274Z,11.15
2024-05-09T00:29:36.878Z,11.03
2024-05-09T00:32:41.488Z,10.87
2024-05-09T00:35:46.068Z,11.04
2024-05-09T00:38:53.152Z,10.84
2024-05-09T00:41:57.588Z,10.72
2024-05-09T00:45:02.008Z,10.83
2024-05-09T00:48:09.637Z,10.53
2024-05-09T00:51:15.232Z,10.86
2024-05-09T00:54:22.764Z,10.93
2024-05-09T00:57:29.396Z,10.86
2024-05-09T01:00:39.113Z,11.00
2024-05-09T01:03:46.619Z,11.03
2024-05-09T01:06:52.621Z,11.05
2024-05-09T01:09:59.759Z,11.17
2024-05-09T01:13:04.447Z,11.24
2024-05-09T01:16:09.338Z,11.24
2024-05-09T01:19:22.768Z,11.13
2024-05-09T01:22:30.050Z,11.21
2024-05-09T01:25:37.280Z,11.31
2024-05-09T01:28:41.946Z,11.27
2024-05-09T01:31:46.999Z,11.30
2024-05-09T01:34:51.621Z,11.37
2024-05-09T01:37:56.262Z,11.38
2024-05-09T01:41:03.671Z,11.39
2024-05-09T01:44:08.448Z,11.43
2024-05-09T01:47:13.028Z,11.44
2024-05-09T01:50:22.491Z,11.44
2024-05-09T01:53:33.487Z,11.46
2024-05-09T01:56:40.784Z,11.46
2024-05-09T01:59:45.399Z,11.45
2024-05-09T02:02:50.107Z,11.41
2024-05-09T02:05:54.715Z,11.39
2024-05-09T02:08:59.228Z,11.28
2024-05-09T02:12:06.874Z,11.35
2024-05-09T02:15:11.755Z,11.39
2024-05-09T02:18:16.605Z,11.37
2024-05-09T02:21:21.264Z,11.37
2024-05-09T02:24:25.898Z,11.38
2024-05-09T02:27:33.029Z,11.37
2024-05-09T02:30:40.737Z,11.44
2024-05-09T02:33:46.990Z,11.46
2024-05-09T02:36:51.673Z,11.41
2024-05-09T02:39:53.710Z,11.40
2024-05-09T02:43:00.906Z,11.39
2024-05-09T02:46:02.823Z,11.30
2024-05-09T02:49:07.567Z,11.31
2024-05-09T02:52:09.537Z,11.25
2024-05-09T02:55:14.073Z,11.17
2024-05-09T02:58:18.801Z,11.20
2024-05-09T03:01:23.327Z,11.18
2024-05-09T03:04:25.773Z,11.17
2024-05-09T03:07:30.307Z,11.17
2024-05-09T03:10:36.903Z,11.14
2024-05-09T03:13:43.192Z,11.13
2024-05-09T03:16:47.809Z,10.65
2024-05-09T03:19:49.893Z,10.95
2024-05-09T03:22:56.745Z,10.99
2024-05-09T03:25:58.954Z,10.95
2024-05-09T03:29:06.386Z,10.86
2024-05-09T03:32:08.465Z,10.80
2024-05-09T03:35:13.204Z,10.44
2024-05-09T03:38:18.044Z,10.86
2024-05-09T03:41:22.952Z,10.86
2024-05-09T03:44:30.386Z,10.82
2024-05-09T03:47:35.674Z,10.90
2024-05-09T03:50:38.089Z,10.90
2024-05-09T03:53:42.725Z,10.82
2024-05-09T03:56:44.676Z,10.73
2024-05-09T03:59:51.821Z,10.09
2024-05-09T04:02:56.373Z,10.79
2024-05-09T04:06:00.934Z,10.76
2024-05-09T04:09:02.781Z,10.74
2024-05-09T04:12:10.383Z,10.50
2024-05-09T04:15:15.224Z,10.70
2024-05-09T04:18:19.964Z,10.44
2024-05-09T04:21:21.890Z,10.63
2024-05-09T04:24:26.363Z,10.59
2024-05-09T04:27:30.823Z,10.48
2024-05-09T04:30:40.901Z,10.63
2024-05-09T04:33:43.822Z,10.68
2024-05-09T04:36:48.318Z,10.67
2024-05-09T04:39:50.241Z,10.66
2024-05-09T04:42:54.757Z,10.71
2024-05-09T04:45:59.256Z,10.76
2024-05-09T04:49:03.800Z,10.84
2024-05-09T04:52:06.236Z,10.81
2024-05-09T04:55:10.760Z,10.89
2024-05-09T04:58:15.309Z,10.93
2024-05-09T05:01:19.890Z,10.99
2024-05-09T05:04:25.114Z,11.00
2024-05-09T05:07:27.012Z,10.93
2024-05-09T05:10:36.069Z,11.01
2024-05-09T05:13:41.331Z,11.08
2024-05-09T05:16:48.868Z,11.26
2024-05-09T05:19:51.039Z,11.34
2024-05-09T05:22:55.671Z,11.41
2024-05-09T05:25:57.630Z,11.51
2024-05-09T05:29:02.243Z,11.54
2024-05-09T05:32:10.095Z,11.66
2024-05-09T05:35:12.023Z,11.69
2024-05-09T05:38:16.724Z,11.93
2024-05-09T05:41:18.696Z,12.10
2024-05-09T05:44:23.358Z,12.19
2024-05-09T05:47:28.033Z,12.35
2024-05-09T05:50:36.366Z,12.50
2024-05-09T05:53:40.203Z,12.64
2024-05-09T05:56:44.973Z,12.74
2024-05-09T05:59:46.972Z,12.56
2024-05-09T06:02:54.363Z,12.77
2024-05-09T06:05:56.655Z,12.67
2024-05-09T06:09:01.273Z,12.83
2024-05-09T06:12:06.575Z,12.53
2024-05-09T06:15:09.082Z,12.83
2024-05-09T06:18:16.665Z,12.91
2024-05-09T06:21:21.415Z,13.03
2024-05-09T06:24:23.345Z,13.04
2024-05-09T06:27:27.887Z,12.89
2024-05-09T06:30:37.409Z,12.91
2024-05-09T06:33:47.224Z,13.18
2024-05-09T06:36:52.406Z,13.12
2024-05-09T06:39:54.270Z,13.05
2024-05-09T06:42:59.186Z,12.99
2024-05-09T06:46:01.385Z,12.86
2024-05-09T06:49:11.524Z,12.83
2024-05-09T06:52:16.141Z,13.10
2024-05-09T06:55:18.034Z,13.43
2024-05-09T06:58:22.476Z,13.81
2024-05-09T07:01:24.518Z,14.08
2024-05-09T07:04:31.756Z,13.92
2024-05-09T07:07:36.235Z,13.94
2024-05-09T07:10:38.579Z,14.19
2024-05-09T07:13:43.165Z,14.14
2024-05-09T07:16:45.295Z,14.08
2024-05-09T07:19:53.638Z,14.58
2024-05-09T07:22:55.701Z,14.72
2024-05-09T07:26:00.553Z,14.95
2024-05-09T07:29:02.504Z,15.19
2024-05-09T07:32:09.105Z,15.32
2024-05-09T07:35:13.688Z,15.43
2024-05-09T07:38:18.328Z,15.41
2024-05-09T07:41:20.317Z,16.02
2024-05-09T07:44:24.946Z,15.99
2024-05-09T07:52:32.599Z,15.88
2024-05-09T07:54:02.080Z,15.90
2024-05-09T07:57:05.012Z,16.01
2024-05-09T08:00:14.353Z,15.95
2024-05-09T08:03:16.603Z,15.90
2024-05-09T08:06:24.613Z,16.06
2024-05-09T08:09:26.680Z,15.35
2024-05-09T08:12:33.708Z,15.44
2024-05-09T08:15:39.345Z,15.56
2024-05-09T08:18:42.875Z,15.56
2024-05-09T08:21:52.012Z,15.49
2024-05-09T08:24:57.878Z,15.41
2024-05-09T08:27:59.987Z,15.35
2024-05-09T08:31:06.863Z,15.79
2024-05-09T08:34:09.457Z,15.94
2024-05-09T08:37:22.356Z,16.01
2024-05-09T08:40:33.753Z,15.96
2024-05-09T08:43:42.043Z,16.25
2024-05-09T08:46:47.397Z,16.26
2024-05-09T08:49:58.364Z,16.34
2024-05-09T08:53:05.918Z,16.59
2024-05-09T08:56:11.427Z,16.66
2024-05-09T08:59:23.549Z,16.78
2024-05-09T09:02:29.342Z,17.03
2024-05-09T09:05:36.071Z,17.21
2024-05-09T09:08:43.594Z,17.38
2024-05-09T09:11:45.655Z,17.45
2024-05-09T09:14:50.243Z,17.89
2024-05-09T09:17:57.367Z,17.51
2024-05-09T09:21:02.894Z,17.55
2024-05-09T09:24:09.978Z,17.68
2024-05-09T09:27:16.763Z,17.70
2024-05-09T09:30:31.493Z,17.88
2024-05-09T09:33:44.973Z,17.96
2024-05-09T09:36:48.036Z,18.22
2024-05-09T09:39:55.801Z,18.31
2024-05-09T09:42:58.143Z,18.36
2024-05-09T09:46:03.753Z,18.51
2024-05-09T09:49:07.357Z,18.52
2024-05-09T09:52:12.495Z,18.41
2024-05-09T09:55:17.669Z,18.35
2024-05-09T09:58:23.099Z,18.48
2024-05-09T10:01:25.219Z,18.45
2024-05-09T10:04:29.943Z,18.58
2024-05-09T10:07:32.773Z,18.91
2024-05-09T10:10:40.310Z,18.77
2024-05-09T10:13:42.363Z,18.87
2024-05-09T10:16:47.123Z,18.92
2024-05-09T10:19:52.100Z,19.05
2024-05-09T10:22:54.060Z,19.01
2024-05-09T10:26:03.511Z,19.14
2024-05-09T10:29:12.695Z,19.14
2024-05-09T10:32:17.283Z,19.21
2024-05-09T10:35:22.656Z,19.36
2024-05-09T10:38:25.139Z,19.30
2024-05-09T10:41:32.410Z,19.28
2024-05-09T10:44:37.568Z,19.01
2024-05-09T10:47:42.691Z,19.23
2024-05-09T10:50:46.140Z,19.46
2024-05-09T10:53:52.579Z,19.68
2024-05-09T10:56:59.982Z,19.92
2024-05-09T11:00:06.328Z,20.05
2024-05-09T11:03:11.595Z,20.21
2024-05-09T11:06:17.574Z,20.27
2024-05-09T11:09:22.387Z,20.36
2024-05-09T11:12:27.053Z,20.41
2024-05-09T11:15:40.652Z,19.95
2024-05-09T11:18:43.343Z,20.45
2024-05-09T11:21:53.908Z,20.60
2024-05-09T11:24:58.553Z,20.65
2024-05-09T11:28:03.794Z,20.71
2024-05-09T11:31:10.291Z,20.71
2024-05-09T11:34:15.437Z,20.73
2024-05-09T11:37:20.139Z,20.81
2024-05-09T11:40:25.835Z,20.80
2024-05-09T11:43:39.278Z,21.09
2024-05-09T11:46:41.401Z,21.11
2024-05-09T11:49:46.431Z,20.84
2024-05-09T11:52:48.366Z,20.77
2024-05-09T11:55:53.060Z,20.90
2024-05-09T11:58:57.780Z,21.13
2024-05-09T12:02:02.475Z,21.35
2024-05-09T12:05:05.310Z,21.28
2024-05-09T12:08:10.495Z,21.02
2024-05-09T12:11:13.938Z,21.04
2024-05-09T12:14:21.094Z,20.98
2024-05-09T12:17:23.067Z,21.23
2024-05-09T12:20:35.301Z,21.04
2024-05-09T12:23:42.848Z,21.14
2024-05-09T12:26:44.767Z,21.18
2024-05-09T12:29:52.005Z,21.37
2024-05-09T12:32:54.170Z,21.42
2024-05-09T12:35:58.723Z,21.47
2024-05-09T12:39:01.017Z,21.50
2024-05-09T12:42:05.539Z,21.43
2024-05-09T12:45:10.214Z,21.33
2024-05-09T12:48:14.848Z,21.51
2024-05-09T12:51:16.813Z,21.66
2024-05-09T12:54:21.253Z,21.80
2024-05-09T12:57:23.616Z,21.91
2024-05-09T13:00:33.982Z,21.87
2024-05-09T13:03:36.700Z,21.97
2024-05-09T13:06:41.543Z,22.06
2024-05-09T13:09:46.209Z,22.05
2024-05-09T13:12:48.119Z,22.20
2024-05-09T13:15:55.422Z,22.15
2024-05-09T13:18:57.452Z,22.13
2024-05-09T13:22:02.011Z,22.04
2024-05-09T13:25:07.157Z,22.05
2024-05-09T13:28:09.133Z,22.08
2024-05-09T13:31:16.442Z,22.25
2024-05-09T13:34:21.349Z,21.98
2024-05-09T13:37:23.484Z,22.08
2024-05-09T13:40:33.583Z,22.04
2024-05-09T13:43:40.635Z,22.24
2024-05-09T13:46:45.271Z,22.02
2024-05-09T13:49:50.751Z,22.15
2024-05-09T13:52:52.651Z,22.26
2024-05-09T13:55:57.372Z,22.24
2024-05-09T13:58:59.349Z,22.43
2024-05-09T14:02:06.967Z,22.44
2024-05-09T14:05:09.237Z,22.47
2024-05-09T14:08:15.843Z,22.57
2024-05-09T14:11:18.094Z,22.44
2024-05-09T14:14:22.716Z,22.26
2024-05-09T14:17:27.402Z,22.43
2024-05-09T14:20:32.688Z,22.51
2024-05-09T14:23:37.413Z,22.60
2024-05-09T14:26:39.326Z,22.72
2024-05-09T14:29:44.246Z,22.72
2024-05-09T14:32:49.172Z,22.82
2024-05-09T14:35:53.843Z,22.89
2024-05-09T14:38:58.412Z,22.63
2024-05-09T14:42:00.287Z,22.65
2024-05-09T14:45:06.249Z,22.82
2024-05-09T14:48:11.609Z,22.66
2024-05-09T14:51:16.588Z,22.65
2024-05-09T14:54:18.573Z,22.59
2024-05-09T14:57:23.317Z,22.70
2024-05-09T15:00:29.203Z,22.71
2024-05-09T15:03:40.966Z,22.83
2024-05-09T15:06:43.001Z,22.82
2024-05-09T15:09:47.664Z,22.83
2024-05-09T15:12:49.745Z,22.83
2024-05-09T15:15:54.753Z,22.81
2024-05-09T15:19:02.205Z,22.90
2024-05-09T15:22:04.544Z,22.78
2024-05-09T15:25:09.700Z,22.79
2024-05-09T15:28:11.813Z,22.88
2024-05-09T15:31:16.285Z,22.96
2024-05-09T15:34:20.914Z,22.86
2024-05-09T15:37:25.843Z,22.74
2024-05-09T15:40:36.199Z,22.70
2024-05-09T15:43:44.436Z,22.69
2024-05-09T15:46:46.559Z,22.71
2024-05-09T15:49:53.892Z,22.72
2024-05-09T15:52:57.510Z,22.63
2024-05-09T15:56:02.100Z,22.72
2024-05-09T15:59:04.096Z,22.70
2024-05-09T16:02:11.400Z,22.76
2024-05-09T16:05:16.878Z,22.77
2024-05-09T16:08:21.541Z,22.63
2024-05-09T16:11:26.179Z,22.55
2024-05-09T16:14:28.099Z,22.55
2024-05-09T16:17:32.834Z,22.57
2024-05-09T16:20:40.763Z,22.53
2024-05-09T16:23:46.975Z,22.43
2024-05-09T16:26:48.852Z,22.34
2024-05-09T16:29:53.407Z,22.34
2024-05-09T16:32:55.995Z,22.31
2024-05-09T16:36:03.292Z,22.29
2024-05-09T16:39:07.831Z,22.17
2024-05-09T16:42:12.297Z,21.84
2024-05-09T16:45:14.429Z,21.94
2024-05-09T16:48:19.454Z,21.85
2024-05-09T16:51:26.575Z,21.77
2024-05-09T16:54:31.184Z,21.66
2024-05-09T16:57:35.775Z,21.81
2024-05-09T17:00:42.115Z,21.74
2024-05-09T17:03:48.309Z,21.64
2024-05-09T17:06:52.965Z,21.67
2024-05-09T17:09:57.677Z,21.62
2024-05-09T17:13:02.753Z,21.49
2024-05-09T17:16:09.461Z,21.45
2024-05-09T17:19:14.047Z,21.28
2024-05-09T17:22:18.702Z,21.27
2024-05-09T17:25:23.229Z,21.27
2024-05-09T17:28:25.491Z,21.18
2024-05-09T17:31:30.231Z,21.15
2024-05-09T17:34:32.413Z,21.12
2024-05-09T17:37:39.679Z,20.92
2024-05-09T17:40:41.822Z,20.95
2024-05-09T17:43:47.072Z,20.67
2024-05-09T17:46:48.974Z,20.76
2024-05-09T17:49:53.660Z,20.67
2024-05-09T17:52:58.256Z,20.54
2024-05-09T17:56:02.999Z,20.50
2024-05-09T17:59:06.486Z,20.31
2024-05-09T18:02:12.681Z,20.14
2024-05-09T18:05:14.916Z,19.87
2024-05-09T18:08:22.110Z,19.65
2024-05-09T18:11:27.737Z,19.45
2024-05-09T18:14:29.628Z,19.26
2024-05-09T18:17:34.346Z,18.94
2024-05-09T18:20:42.219Z,18.91
2024-05-09T18:23:54.876Z,18.84
2024-05-09T18:26:59.487Z,18.68
2024-05-09T18:30:07.105Z,18.55
2024-05-09T18:33:10.258Z,18.29
2024-05-09T18:36:15.338Z,18.21
2024-05-09T18:39:19.933Z,18.10
2024-05-09T18:42:24.436Z,18.05
2024-05-09T18:45:28.939Z,17.95
2024-05-09T18:48:31.021Z,17.75
2024-05-09T18:51:35.660Z,17.47
2024-05-09T18:54:40.191Z,17.61
2024-05-09T18:57:44.808Z,17.16
2024-05-09T19:00:50.191Z,17.23
2024-05-09T19:03:56.151Z,16.69
2024-05-09T19:06:58.358Z,17.04
2024-05-09T19:10:09.456Z,16.62
2024-05-09T19:13:16.637Z,16.92
2024-05-09T19:16:21.412Z,16.71
2024-05-09T19:19:23.673Z,16.63
2024-05-09T19:22:28.516Z,16.54
2024-05-09T19:25:33.127Z,16.46
2024-05-09T19:28:37.703Z,16.44
2024-05-09T19:31:39.617Z,16.34
2024-05-09T19:34:44.122Z,16.33
2024-05-09T19:37:46.099Z,16.29
2024-05-09T19:40:53.485Z,16.25
2024-05-09T19:43:55.397Z,16.17
2024-05-09T19:46:59.936Z,16.13
2024-05-09T19:50:01.870Z,16.07
2024-05-09T19:53:06.698Z,15.83
2024-05-09T19:56:11.555Z,15.71
2024-05-09T19:59:16.079Z,15.75
2024-05-09T20:02:18.295Z,15.31
2024-05-09T20:05:23.310Z,15.59
2024-05-09T20:08:25.476Z,15.64
2024-05-09T20:11:33.256Z,15.21
2024-05-09T20:14:35.282Z,15.52
2024-05-09T20:17:40.937Z,15.46
2024-05-09T20:20:44.955Z,15.39
2024-05-09T20:23:50.197Z,15.00
2024-05-09T20:26:54.770Z,15.25
2024-05-09T20:29:59.306Z,15.10
2024-05-09T20:33:03.548Z,15.11
2024-05-09T20:36:09.646Z,15.05
2024-05-09T20:39:11.604Z,14.98
2024-05-09T20:42:18.768Z,14.92
2024-05-09T20:45:20.637Z,14.72
2024-05-09T20:48:25.280Z,14.63
2024-05-09T20:51:28.729Z,14.04
2024-05-09T20:54:34.070Z,14.65
2024-05-09T20:57:38.715Z,14.52
2024-05-09T21:00:45.399Z,14.45
2024-05-09T21:03:51.088Z,13.91
2024-05-09T21:06:53.136Z,14.08
2024-05-09T21:09:57.763Z,13.79
2024-05-09T21:13:05.709Z,13.69
2024-05-09T21:16:08.756Z,14.20
2024-05-09T21:19:13.373Z,13.64
2024-05-09T21:22:15.493Z,13.51
2024-05-09T21:25:20.211Z,14.03
2024-05-09T21:28:24.990Z,14.01
2024-05-09T21:31:29.980Z,13.96
2024-05-09T21:34:34.672Z,13.53
2024-05-09T21:37:36.737Z,13.52
2024-05-09T21:40:41.324Z,13.78
2024-05-09T21:43:45.962Z,13.71
2024-05-09T21:46:51.554Z,13.65
2024-05-09T21:49:53.718Z,13.58
2024-05-09T21:52:58.329Z,13.47
2024-05-09T21:56:00.275Z,13.50
2024-05-09T21:59:07.476Z,13.45
2024-05-09T22:02:09.649Z,13.38
2024-05-09T22:05:16.165Z,13.01
2024-05-09T22:08:20.935Z,13.15
2024-05-09T22:11:23.012Z,13.10
2024-05-09T22:14:30.319Z,13.10
2024-05-09T22:17:32.504Z,13.08
2024-05-09T22:20:43.540Z,13.04
2024-05-09T22:23:45.872Z,13.02
2024-05-09T22:26:52.202Z,12.56
2024-05-09T22:29:56.916Z,12.95
2024-05-09T22:33:01.767Z,12.86
2024-05-09T22:36:06.700Z,12.85
2024-05-09T22:39:08.658Z,12.65
2024-05-09T22:42:13.195Z,12.30
2024-05-09T22:45:17.775Z,12.16
2024-05-09T22:48:23.702Z,12.69
2024-05-09T22:51:28.926Z,12.65
2024-05-09T22:54:30.780Z,12.14
2024-05-09T22:57:35.479Z,12.55
2024-05-09T23:00:40.287Z,12.09
2024-05-09T23:03:45.144Z,12.27
2024-05-09T23:06:47.440Z,11.88
2024-05-09T23:09:52.042Z,11.87
2024-05-09T23:12:53.960Z,12.34
2024-05-09T23:16:01.247Z,12.25
2024-05-09T23:19:03.293Z,11.65
2024-05-09T23:22:07.954Z,11.95
2024-05-09T23:25:09.986Z,11.52
2024-05-09T23:28:14.953Z,11.52
2024-05-09T23:31:19.605Z,11.32
2024-05-09T23:34:24.447Z,11.43
2024-05-09T23:37:26.553Z,11.92
2024-05-09T23:40:38.390Z,11.45
2024-05-09T23:43:42.584Z,11.87
2024-05-09T23:46:49.891Z,11.70
2024-05-09T23:49:51.830Z,11.78
2024-05-09T23:52:56.399Z,11.74
2024-05-09T23:55:58.320Z,11.63
2024-05-09T23:59:02.853Z,11.42
